.
WxDataArchive / Data Records for 2007-05-12
2007-05-11 May 2007 2007-05-13

Data Records for Saturday, 12 May 2007

Time	Temp	Chill	HIndex	Humid	Dewpt	 Wind 	HiWind	WindDir	Rain 	Barom 
-----	----	-----	------	-----	-----	------	------	-------	-----	----- 
00:00	63.7	63.7	63.7	73	54.9	3	9	90	0.00	29.975 
00:05	63.5	63.5	63.5	72	54.3	3	7	90	0.00	29.975 
00:10	63.2	63.2	63.2	72	54.0	4	9	112	0.00	29.974 
00:15	63.1	63.1	63.1	72	53.9	3	7	90	0.00	29.975 
00:20	62.9	62.9	62.9	72	53.7	4	9	90	0.00	29.976 
00:25	62.6	62.6	62.6	73	53.8	3	6	90	0.00	29.975 
00:30	62.4	62.4	62.4	73	53.6	3	7	90	0.00	29.978 
00:35	62.3	62.3	62.3	74	53.9	2	4	90	0.00	29.983 
00:40	62.1	62.1	62.1	74	53.7	2	6	90	0.00	29.981 
00:45	61.8	61.8	61.8	75	53.8	2	5	90	0.00	29.983 
00:50	61.6	61.6	61.6	76	54.0	2	6	90	0.00	29.981 
00:55	61.5	61.5	61.5	76	53.9	2	6	90	0.00	29.979 
01:00	61.3	61.3	61.3	77	54.0	2	4	90	0.00	29.979 
01:05	61.2	61.2	61.2	77	53.9	1	4	90	0.00	29.979 
01:10	60.9	60.9	60.9	78	54.0	2	4	90	0.00	29.977 
01:15	60.7	60.7	60.7	79	54.1	1	3	90	0.00	29.977 
01:20	60.5	60.5	60.5	79	54.0	1	4	90	0.00	29.976 
01:25	60.2	60.2	60.2	80	54.0	1	2	90	0.00	29.975 
01:30	60.1	60.1	60.1	81	54.2	1	4	112	0.00	29.976 
01:35	59.8	59.8	59.8	81	54.0	1	3	112	0.00	29.977 
01:40	59.6	59.6	59.6	81	53.8	1	3	90	0.00	29.977 
01:45	59.5	59.5	59.5	81	53.7	1	4	112	0.00	29.975 
01:50	59.5	59.5	59.5	80	53.3	2	5	90	0.00	29.974 
01:55	59.5	59.5	59.5	80	53.3	2	5	112	0.00	29.972 
02:00	59.5	59.5	59.5	79	53.0	2	5	68	0.00	29.974 
02:05	59.3	59.3	59.3	80	53.1	2	3	90	0.00	29.977 
02:10	59.2	59.2	59.2	80	53.0	2	4	90	0.00	29.978 
02:15	59.2	59.2	59.2	80	53.0	2	3	90	0.00	29.977 
02:20	59.0	59.0	59.0	81	53.2	2	5	90	0.00	29.977 
02:25	58.9	58.9	58.9	81	53.1	1	4	112	0.00	29.977 
02:30	58.7	58.7	58.7	81	52.9	1	2	112	0.00	29.977 
02:35	58.4	58.4	58.4	82	52.9	1	2	112	0.00	29.977 
02:40	58.3	58.3	58.3	83	53.2	1	2	112	0.00	29.977 
02:45	58.0	58.0	58.0	83	52.9	0	2	112	0.00	29.978 
02:50	57.6	57.6	57.6	84	52.8	0	2	90	0.00	29.980 
02:55	57.5	57.5	57.5	84	52.7	2	4	112	0.00	29.981 
03:00	57.3	57.3	57.3	83	52.2	1	3	112	0.00	29.984 
03:05	57.2	57.2	57.2	82	51.8	1	4	112	0.00	29.982 
03:10	56.9	56.9	56.9	80	50.8	2	4	90	0.00	29.983 
03:15	56.7	56.7	56.7	79	50.3	1	5	112	0.00	29.990 
03:20	56.5	56.5	56.5	79	50.1	1	3	90	0.00	29.991 
03:25	56.2	56.2	56.2	75	48.4	2	6	112	0.00	29.993 
03:30	56.0	56.0	56.0	72	47.1	1	4	90	0.00	29.993 
03:35	55.7	55.7	55.7	69	45.7	1	4	45	0.00	29.991 
03:40	55.6	55.6	55.6	67	44.8	1	6	112	0.00	29.991 
03:45	55.4	55.4	55.4	67	44.6	1	5	112	0.00	29.988 
03:50	55.3	55.3	55.3	67	44.5	1	4	112	0.00	29.986 
03:55	55.1	55.1	55.1	65	43.5	2	4	112	0.00	29.986 
04:00	55.0	55.0	55.0	65	43.5	2	4	112	0.00	29.984 
04:05	54.8	54.8	54.8	64	42.9	2	5	112	0.00	29.984 
04:10	54.7	54.7	54.7	64	42.8	2	5	90	0.00	29.984 
04:15	54.5	54.5	54.5	65	43.0	1	4	90	0.00	29.984 
04:20	54.2	54.2	54.2	65	42.7	2	4	112	0.00	29.985 
04:25	53.9	53.9	53.9	66	42.8	1	3	112	0.00	29.985 
04:30	53.8	53.8	53.8	66	42.7	2	4	90	0.00	29.985 
04:35	53.6	53.6	53.6	67	42.9	1	3	112	0.00	29.986 
04:40	53.3	53.3	53.3	67	42.6	1	5	112	0.00	29.985 
04:45	53.3	53.3	53.3	67	42.6	1	4	112	0.00	29.985 
04:50	53.2	53.2	53.2	67	42.5	1	3	112	0.00	29.985 
04:55	53.1	53.1	53.1	69	43.2	0	1	112	0.00	29.987 
05:00	52.8	52.8	52.8	69	42.9	1	2	112	0.00	29.988 
05:05	52.8	52.8	52.8	69	42.9	1	2	112	0.00	29.988 
05:10	52.6	52.6	52.6	69	42.7	0	2	112	0.00	29.989 
05:15	52.3	52.3	52.3	69	42.4	0	1	112	0.00	29.997 
05:20	52.2	52.2	52.2	70	42.7	0	2	112	0.00	29.999 
05:25	52.0	52.0	52.0	71	42.9	0	0	---	0.00	30.001 
05:30	51.9	51.9	51.9	72	43.2	0	2	112	0.00	30.002 
05:35	51.7	51.7	51.7	73	43.3	0	1	112	0.00	30.005 
05:40	51.6	51.6	51.6	72	42.9	0	1	112	0.00	30.004 
05:45	51.6	51.6	51.6	73	43.2	0	1	112	0.00	30.007 
05:50	51.6	51.6	51.6	73	43.2	1	2	112	0.00	30.010 
05:55	51.7	51.7	51.7	72	43.0	0	2	112	0.00	30.016 
06:00	51.9	51.9	51.9	71	42.8	0	2	112	0.00	30.016 
06:05	52.2	52.2	52.2	72	43.4	0	4	112	0.00	30.022 
06:10	52.3	52.3	52.3	72	43.5	0	0	---	0.00	30.023 
06:15	52.5	52.5	52.5	72	43.7	0	1	112	0.00	30.023 
06:20	52.8	52.8	52.8	70	43.3	1	4	112	0.00	30.021 
06:25	53.3	53.3	53.3	68	43.0	1	4	68	0.00	30.020 
06:30	53.9	53.9	53.9	67	43.2	1	5	112	0.00	30.018 
06:35	54.2	54.2	54.2	66	43.1	1	3	68	0.00	30.017 
06:40	54.5	54.5	54.5	65	43.0	1	4	90	0.00	30.014 
06:45	54.8	54.8	54.8	65	43.3	2	5	68	0.00	30.017 
06:50	55.0	55.0	55.0	65	43.5	2	5	112	0.00	30.017 
06:55	55.1	55.1	55.1	65	43.5	1	4	45	0.00	30.018 
07:00	55.4	55.4	55.4	63	43.0	2	5	90	0.00	30.018 
07:05	55.7	55.7	55.7	62	42.9	2	4	112	0.00	30.021 
07:10	55.9	55.9	55.9	62	43.1	1	7	90	0.00	30.022 
07:15	56.2	56.2	56.2	64	44.2	2	4	90	0.00	30.023 
07:20	56.3	56.3	56.3	62	43.4	2	5	90	0.00	30.028 
07:25	56.5	56.5	56.5	62	43.6	2	5	112	0.00	30.032 
07:30	56.9	56.9	56.9	63	44.4	2	4	112	0.00	30.034 
07:35	57.2	57.2	57.2	62	44.3	1	4	68	0.00	30.036 
07:40	57.2	57.2	57.2	62	44.3	1	4	112	0.00	30.044 
07:45	56.9	56.9	56.9	62	44.0	1	3	112	0.00	30.044 
07:50	57.2	57.2	57.2	65	45.5	2	7	90	0.00	30.048 
07:55	57.3	57.3	57.3	61	44.0	2	3	90	0.00	30.049 
08:00	57.8	57.8	57.8	62	44.9	1	3	90	0.00	30.051 
08:05	58.1	58.1	58.1	59	43.8	3	7	90	0.00	30.055 
08:10	58.1	58.1	58.1	59	43.8	2	7	90	0.00	30.059 
08:15	57.8	57.8	57.8	59	43.6	2	7	45	0.00	30.062 
08:20	58.4	58.4	58.4	60	44.6	2	4	112	0.00	30.061 
08:25	58.9	58.9	58.9	59	44.6	1	4	112	0.00	30.062 
08:30	59.5	59.5	59.5	61	46.0	1	5	90	0.00	30.064 
08:35	59.6	59.6	59.6	58	44.8	1	4	0	0.00	30.066 
08:40	59.9	59.9	59.9	58	45.1	2	7	112	0.00	30.067 
08:45	60.2	60.2	60.2	59	45.8	1	4	90	0.00	30.065 
08:50	60.4	60.4	60.4	59	46.0	2	5	112	0.00	30.065 
08:55	60.5	60.5	60.5	56	44.7	2	5	112	0.00	30.064 
09:00	60.7	60.7	60.7	56	44.9	2	6	90	0.00	30.064 
09:05	60.5	60.5	60.5	57	45.2	3	7	112	0.00	30.067 
09:10	60.4	60.4	60.4	58	45.6	3	6	90	0.00	30.067 
09:15	60.7	60.7	60.7	58	45.8	2	5	90	0.00	30.067 
09:20	61.0	61.0	61.0	59	46.6	2	5	112	0.00	30.066 
09:25	61.5	61.5	61.5	59	47.0	2	5	112	0.00	30.067 
09:30	62.0	62.0	62.0	58	47.0	2	6	248	0.00	30.065 
09:35	62.4	62.4	62.4	58	47.4	2	5	112	0.00	30.066 
09:40	62.3	62.3	62.3	60	48.2	2	5	90	0.00	30.066 
09:45	62.7	62.7	62.7	58	47.7	1	4	68	0.00	30.066 
09:50	63.5	63.5	63.5	58	48.5	1	4	45	0.00	30.070 
09:55	63.9	63.9	63.9	57	48.4	2	5	112	0.00	30.072 
10:00	64.0	64.0	64.0	57	48.5	2	5	112	0.00	30.071 
10:05	64.3	64.3	64.3	62	51.0	2	6	68	0.00	30.073 
10:10	64.5	64.5	64.5	58	49.4	1	3	68	0.00	30.073 
10:15	65.2	65.2	65.2	62	51.8	1	5	68	0.00	30.073 
10:20	65.2	65.2	65.2	58	50.0	1	4	22	0.00	30.072 
10:25	65.2	65.2	65.2	60	51.0	3	6	90	0.00	30.072 
10:30	65.8	65.8	65.8	59	51.1	1	4	112	0.00	30.075 
10:35	66.3	66.3	66.3	59	51.5	1	4	112	0.00	30.077 
10:40	66.9	66.9	66.9	60	52.6	1	3	68	0.00	30.070 
10:45	67.3	67.3	67.3	55	50.6	2	5	112	0.00	30.069 
10:50	66.8	66.8	66.8	57	51.1	1	5	90	0.00	30.070 
10:55	66.6	66.6	66.6	62	53.2	3	5	90	0.00	30.068 
11:00	66.8	66.8	66.8	58	51.5	1	4	68	0.00	30.067 
11:05	67.1	67.1	67.1	60	52.7	1	3	22	0.00	30.069 
11:10	67.6	67.6	67.6	59	52.8	1	4	338	0.00	30.068 
11:15	67.8	67.8	67.8	62	54.3	1	5	90	0.00	30.068 
11:20	67.9	67.9	67.9	62	54.4	2	6	90	0.00	30.067 
11:25	68.1	68.1	68.1	59	53.2	2	5	90	0.00	30.067 
11:30	68.3	68.3	68.3	57	52.5	2	4	112	0.00	30.067 
11:35	68.4	68.4	68.4	55	51.6	1	6	68	0.00	30.067 
11:40	68.8	68.8	68.8	60	54.3	2	5	22	0.00	30.065 
11:45	69.1	69.1	69.1	58	53.7	1	3	45	0.00	30.065 
11:50	69.3	69.3	69.3	60	54.8	1	2	270	0.00	30.066 
11:55	69.3	69.3	69.3	56	52.9	2	9	90	0.00	30.066 
12:00	69.3	69.3	69.3	57	53.4	2	6	90	0.00	30.067 
12:05	69.4	69.4	69.4	56	53.0	2	4	90	0.00	30.066 
12:10	69.8	69.8	69.8	56	53.4	2	5	112	0.00	30.066 
12:15	69.9	69.9	69.9	55	53.0	2	5	112	0.00	30.066 
12:20	69.9	69.9	69.9	55	53.0	1	4	68	0.00	30.064 
12:25	69.6	69.6	69.6	55	52.7	3	6	112	0.00	30.063 
12:30	69.8	69.8	69.8	57	53.9	2	10	112	0.00	30.061 
12:35	69.9	69.9	69.9	53	52.0	1	4	68	0.00	30.062 
12:40	70.3	70.3	70.3	55	53.4	1	3	248	0.00	30.058 
12:45	70.9	70.9	70.9	54	53.4	1	4	112	0.00	30.058 
12:50	70.9	70.9	70.9	53	52.9	2	5	68	0.00	30.061 
12:55	70.8	70.8	70.8	53	52.8	1	4	22	0.00	30.061 
13:00	70.9	70.9	70.9	50	51.3	2	6	112	0.00	30.062 
13:05	70.9	70.9	70.9	53	52.9	1	6	112	0.00	30.064 
13:10	71.1	71.1	71.1	53	53.1	1	6	68	0.00	30.066 
13:15	71.5	71.5	71.5	52	52.9	1	4	315	0.00	30.064 
13:20	71.3	71.3	71.3	53	53.3	1	5	270	0.00	30.064 
13:25	71.8	71.8	71.8	53	53.7	2	7	158	0.00	30.062 
13:30	72.1	72.1	72.1	53	54.0	1	5	68	0.00	30.060 
13:35	72.3	72.3	72.3	50	52.6	2	6	90	0.00	30.060 
13:40	72.3	72.3	72.3	52	53.7	2	6	90	0.00	30.060 
13:45	72.1	72.1	72.1	52	53.5	1	4	225	0.00	30.059 
13:50	72.5	72.5	72.5	52	53.9	2	5	135	0.00	30.060 
13:55	72.7	72.7	72.7	51	53.5	1	5	90	0.00	30.060 
14:00	72.7	72.7	72.7	51	53.5	1	2	292	0.00	30.060 
14:05	73.0	73.0	73.0	51	53.8	1	5	112	0.00	30.062 
14:10	73.2	73.2	73.2	49	52.9	2	7	90	0.00	30.060 
14:15	73.2	73.2	73.2	47	51.7	1	4	90	0.00	30.057 
14:20	73.0	73.0	73.0	46	51.0	2	6	90	0.00	30.053 
14:25	73.2	73.2	73.2	49	52.9	2	6	90	0.00	30.050 
14:30	73.5	73.5	73.5	50	53.7	1	9	90	0.00	30.051 
14:35	73.5	73.5	73.5	46	51.4	1	4	90	0.00	30.050 
14:40	73.9	73.9	73.9	46	51.8	2	5	90	0.00	30.049 
14:45	74.0	74.0	74.0	45	51.3	1	2	112	0.00	30.048 
14:50	73.9	73.9	73.9	43	50.0	2	6	292	0.00	30.047 
14:55	73.9	73.9	73.9	48	53.0	1	3	45	0.00	30.040 
15:00	73.9	73.9	73.9	45	51.2	1	3	0	0.00	30.039 
15:05	74.0	74.0	74.0	40	48.1	1	3	45	0.00	30.040 
15:10	74.4	74.4	74.4	46	52.3	1	3	45	0.00	30.041 
15:15	74.6	74.6	74.6	43	50.6	2	4	45	0.00	30.040 
15:20	74.4	74.4	74.4	40	48.5	1	5	45	0.00	30.042 
15:25	74.2	74.2	74.2	43	50.2	2	6	112	0.00	30.042 
15:30	74.0	74.0	74.0	42	49.4	1	3	90	0.00	30.041 
15:35	74.2	74.2	74.2	38	46.9	1	4	270	0.00	30.043 
15:40	74.2	74.2	74.2	38	46.9	1	4	0	0.00	30.046 
15:45	74.0	74.0	74.0	39	47.5	1	5	0	0.00	30.041 
15:50	74.0	74.0	74.0	37	46.1	2	7	112	0.00	30.041 
15:55	73.9	73.9	73.9	39	47.4	1	5	112	0.00	30.041 
16:00	74.0	74.0	74.0	37	46.1	2	5	90	0.00	30.039 
16:05	74.0	74.0	74.0	39	47.5	1	3	45	0.00	30.042 
16:10	73.9	73.9	73.9	35	44.5	1	7	112	0.00	30.044 
16:15	73.3	73.3	73.3	35	44.0	1	4	0	0.00	30.044 
16:20	73.2	73.2	73.2	37	45.4	1	4	45	0.00	30.045 
16:25	73.2	73.2	73.2	38	46.1	1	2	45	0.00	30.047 
16:30	73.3	73.3	73.3	37	45.4	2	6	112	0.00	30.050 
16:35	73.0	73.0	73.0	41	47.9	2	7	90	0.00	30.051 
16:40	72.8	72.8	72.8	40	47.1	2	6	68	0.00	30.053 
16:45	72.7	72.7	72.7	39	46.3	1	3	22	0.00	30.054 
16:50	72.3	72.3	72.3	38	45.3	2	6	112	0.00	30.054 
16:55	72.0	72.0	72.0	36	43.6	1	10	90	0.00	30.056 
17:00	71.8	71.8	71.8	39	45.5	1	6	90	0.00	30.056 
17:05	71.6	71.6	71.6	38	44.6	1	3	90	0.00	30.055 
17:10	71.6	71.6	71.6	39	45.3	1	3	22	0.00	30.056 
17:15	71.3	71.3	71.3	39	45.1	1	6	22	0.00	30.058 
17:20	70.9	70.9	70.9	37	43.3	1	3	112	0.00	30.057 
17:25	70.9	70.9	70.9	37	43.3	1	5	135	0.00	30.057 
17:30	70.8	70.8	70.8	38	43.9	3	9	68	0.00	30.057 
17:35	70.4	70.4	70.4	37	42.9	3	9	90	0.00	30.061 
17:40	69.9	69.9	69.9	38	43.1	2	6	112	0.00	30.064 
17:45	69.8	69.8	69.8	41	45.0	2	9	112	0.00	30.064 
17:50	69.6	69.6	69.6	38	42.9	2	6	112	0.00	30.065 
17:55	69.4	69.4	69.4	39	43.4	2	4	68	0.00	30.069 
18:00	69.1	69.1	69.1	38	42.4	1	5	315	0.00	30.071 
18:05	68.9	68.9	68.9	38	42.2	2	7	112	0.00	30.070 
18:10	68.6	68.6	68.6	38	42.0	2	4	68	0.00	30.070 
18:15	68.3	68.3	68.3	38	41.7	2	10	112	0.00	30.073 
18:20	68.1	68.1	68.1	41	43.5	1	5	112	0.00	30.074 
18:25	67.9	67.9	67.9	37	40.7	2	7	90	0.00	30.075 
18:30	67.6	67.6	67.6	39	41.8	1	5	90	0.00	30.079 
18:35	67.3	67.3	67.3	39	41.5	1	5	135	0.00	30.082 
18:40	66.9	66.9	66.9	38	40.5	1	6	112	0.00	30.085 
18:45	66.8	66.8	66.8	38	40.4	1	4	90	0.00	30.088 
18:50	66.4	66.4	66.4	40	41.3	1	4	90	0.00	30.090 
18:55	66.3	66.3	66.3	40	41.2	2	7	68	0.00	30.090 
19:00	65.8	65.8	65.8	39	40.1	2	5	90	0.00	30.091 
19:05	65.6	65.6	65.6	41	41.3	2	5	45	0.00	30.089 
19:10	65.2	65.2	65.2	42	41.5	2	4	112	0.00	30.092 
19:15	65.0	65.0	65.0	41	40.7	2	6	135	0.00	30.095 
19:20	64.5	64.5	64.5	43	41.5	1	4	90	0.00	30.099 
19:25	64.2	64.2	64.2	44	41.8	1	5	68	0.00	30.102 
19:30	63.7	63.7	63.7	44	41.4	1	3	135	0.00	30.104 
19:35	63.5	63.5	63.5	43	40.6	1	6	90	0.00	30.106 
19:40	63.2	63.2	63.2	43	40.3	1	4	135	0.00	30.109 
19:45	62.9	62.9	62.9	44	40.6	1	3	90	0.00	30.116 
19:50	62.6	62.6	62.6	44	40.4	1	7	68	0.00	30.119 
19:55	62.3	62.3	62.3	43	39.5	1	3	112	0.00	30.121 
20:00	61.8	61.8	61.8	43	39.1	1	5	135	0.00	30.122 
20:05	61.5	61.5	61.5	46	40.5	1	6	112	0.00	30.122 
20:10	61.3	61.3	61.3	45	39.8	1	7	68	0.00	30.124 
20:15	61.0	61.0	61.0	43	38.3	1	6	112	0.00	30.125 
20:20	60.9	60.9	60.9	44	38.8	1	5	112	0.00	30.126 
20:25	60.7	60.7	60.7	45	39.2	1	4	90	0.00	30.132 
20:30	60.5	60.5	60.5	46	39.6	1	5	158	0.00	30.136 
20:35	60.1	60.1	60.1	46	39.2	1	2	112	0.00	30.139 
20:40	59.8	59.8	59.8	48	40.1	0	3	158	0.00	30.141 
20:45	59.3	59.3	59.3	50	40.7	0	2	158	0.00	30.148 
20:50	59.0	59.0	59.0	48	39.3	1	10	158	0.00	30.150 
20:55	58.9	58.9	58.9	48	39.2	1	4	90	0.00	30.152 
21:00	58.6	58.6	58.6	48	39.0	0	3	90	0.00	30.154 
21:05	58.3	58.3	58.3	48	38.7	1	4	112	0.00	30.159 
21:10	58.1	58.1	58.1	48	38.5	1	3	68	0.00	30.164 
21:15	57.8	57.8	57.8	48	38.2	1	4	135	0.00	30.167 
21:20	57.6	57.6	57.6	49	38.6	1	4	135	0.00	30.169 
21:25	57.3	57.3	57.3	48	37.8	0	2	135	0.00	30.172 
21:30	57.0	57.0	57.0	48	37.5	0	3	135	0.00	30.174 
21:35	56.7	56.7	56.7	47	36.7	1	5	135	0.00	30.176 
21:40	56.7	56.7	56.7	48	37.2	1	6	135	0.00	30.181 
21:45	56.6	56.6	56.6	47	36.6	1	5	90	0.00	30.184 
21:50	56.5	56.5	56.5	48	37.0	1	3	112	0.00	30.186 
21:55	56.2	56.2	56.2	48	36.8	1	3	112	0.00	30.188 
22:00	55.9	55.9	55.9	48	36.5	1	4	22	0.00	30.189 
22:05	55.7	55.7	55.7	48	36.3	1	5	112	0.00	30.189 
22:10	55.4	55.4	55.4	49	36.6	1	4	45	0.00	30.190 
22:15	55.1	55.1	55.1	50	36.8	1	4	45	0.00	30.190 
22:20	54.7	54.7	54.7	51	36.9	0	2	45	0.00	30.193 
22:25	54.4	54.4	54.4	52	37.1	0	2	45	0.00	30.192 
22:30	53.9	53.9	53.9	53	37.2	1	2	45	0.00	30.195 
22:35	53.6	53.6	53.6	54	37.4	1	2	45	0.00	30.196 
22:40	53.2	53.2	53.2	54	37.0	0	2	68	0.00	30.198 
22:45	52.8	52.8	52.8	55	37.1	0	1	68	0.00	30.199 
22:50	52.5	52.5	52.5	56	37.3	0	2	68	0.00	30.198 
22:55	52.2	52.2	52.2	58	37.9	0	1	68	0.00	30.199 
23:00	52.0	52.0	52.0	56	36.8	0	3	68	0.00	30.199 
23:05	51.9	51.9	51.9	57	37.1	0	1	68	0.00	30.198 
23:10	51.7	51.7	51.7	56	36.5	0	1	68	0.00	30.198 
23:15	51.6	51.6	51.6	58	37.3	0	2	68	0.00	30.199 
23:20	51.3	51.3	51.3	57	36.6	0	3	68	0.00	30.200 
23:25	51.1	51.1	51.1	58	36.8	0	2	68	0.00	30.200 
23:30	51.0	51.0	51.0	56	35.9	0	2	22	0.00	30.201 
23:35	51.0	51.0	51.0	56	35.9	0	3	45	0.00	30.202 
23:40	50.8	50.8	50.8	56	35.7	0	2	68	0.00	30.202 
23:45	50.7	50.7	50.7	56	35.6	1	3	45	0.00	30.201 
23:50	50.5	50.5	50.5	57	35.8	0	1	45	0.00	30.202 
23:55	50.2	50.2	50.2	56	35.1	1	3	68	0.00	30.203 

CoCoRaHS
IN-AL-39
A2 Web Hosting
Creative Commons License
GoDaddy
Look for:

loaded 2017-12-13 02:44:13 • last modified 2010-11-18 10:43:29
Privacy PolicyDisclaimer
• wx.awcolley.com is powered by PmWiki v.2002016 •
• all content (unless otherwise noted) © 2017 A W Colley